Time,TemperatureF,DewpointF,PressureIn,WindDirection,WindDirectionDegrees,WindSpeedMPH,WindSpeedGustMPH,Humidity,HourlyPrecipIn,Conditions,Clouds,dailyrainin,SoftwareType,DateUTC
2013-09-28 00:00:00,61.3,59.9,30.11,SW,215,0.0,1.0,95,0.00,,,0.00,meteohub,2013-09-28 04:00:00,
2013-09-28 00:01:00,61.3,59.9,30.11,SW,215,0.0,1.0,95,0.00,,,0.00,meteohub,2013-09-28 04:01:00,
2013-09-28 00:06:00,61.2,59.7,30.11,SW,216,0.0,1.0,95,0.00,,,0.00,meteohub,2013-09-28 04:06:00,
2013-09-28 00:11:00,61.2,59.7,30.11,SW,215,0.0,0.0,95,0.00,,,0.00,meteohub,2013-09-28 04:11:00,
2013-09-28 00:16:00,61.2,59.7,30.11,SW,215,0.0,0.0,95,0.00,,,0.00,meteohub,2013-09-28 04:16:00,
2013-09-28 00:21:00,61.2,59.7,30.11,SW,216,0.0,0.0,95,0.00,,,0.00,meteohub,2013-09-28 04:21:00,
2013-09-28 00:26:00,61.2,59.7,30.12,SW,215,0.0,0.0,95,0.00,,,0.00,meteohub,2013-09-28 04:26:00,
2013-09-28 00:31:00,61.2,60.1,30.12,SW,215,0.0,1.0,96,0.00,,,0.00,meteohub,2013-09-28 04:31:00,
2013-09-28 00:36:00,61.2,59.7,30.12,SW,215,0.0,1.0,95,0.00,,,0.00,meteohub,2013-09-28 04:36:00,
2013-09-28 00:41:00,61.2,59.7,30.12,SW,215,0.0,1.0,95,0.00,,,0.00,meteohub,2013-09-28 04:41:00,
2013-09-28 00:46:00,61.0,59.5,30.12,SW,215,0.0,1.0,95,0.00,,,0.00,meteohub,2013-09-28 04:46:00,
2013-09-28 00:51:00,61.0,59.5,30.12,SW,215,0.0,1.0,95,0.00,,,0.00,meteohub,2013-09-28 04:51:00,
2013-09-28 00:56:00,61.0,59.5,30.12,SW,215,0.0,1.0,95,0.00,,,0.00,meteohub,2013-09-28 04:56:00,
2013-09-28 01:01:00,60.6,59.2,30.12,SW,215,0.0,0.0,95,0.00,,,0.00,meteohub,2013-09-28 05:01:00,
2013-09-28 01:06:00,60.6,59.2,30.12,SW,215,0.0,0.0,95,0.00,,,0.00,meteohub,2013-09-28 05:06:00,
2013-09-28 01:11:00,60.4,59.0,30.12,SW,215,0.0,0.0,95,0.00,,,0.00,meteohub,2013-09-28 05:11:00,
2013-09-28 01:16:00,60.4,59.0,30.12,SW,215,0.0,0.0,95,0.00,,,0.00,meteohub,2013-09-28 05:16:00,
2013-09-28 01:21:00,60.3,58.8,30.12,SW,216,0.0,0.0,95,0.00,,,0.00,meteohub,2013-09-28 05:21:00,
2013-09-28 01:26:00,60.3,58.8,30.12,SW,215,0.0,0.0,95,0.00,,,0.00,meteohub,2013-09-28 05:26:00,
2013-09-28 01:31:00,60.1,58.6,30.12,SW,215,0.0,0.0,95,0.00,,,0.00,meteohub,2013-09-28 05:31:00,
2013-09-28 01:36:00,59.9,58.8,30.12,SW,216,0.0,0.0,96,0.00,,,0.00,meteohub,2013-09-28 05:36:00,
2013-09-28 01:41:00,59.7,58.6,30.12,SW,215,0.0,0.0,96,0.00,,,0.00,meteohub,2013-09-28 05:41:00,
2013-09-28 01:46:00,59.7,58.6,30.12,SW,215,0.0,0.0,96,0.00,,,0.00,meteohub,2013-09-28 05:46:00,
2013-09-28 01:51:00,59.5,58.5,30.12,SW,215,0.0,0.0,96,0.00,,,0.00,meteohub,2013-09-28 05:51:00,
2013-09-28 01:56:00,59.5,58.5,30.12,SW,215,0.0,0.0,96,0.00,,,0.00,meteohub,2013-09-28 05:56:00,
2013-09-28 02:01:00,59.5,58.5,30.12,SW,215,0.0,0.0,96,0.00,,,0.00,meteohub,2013-09-28 06:01:00,
2013-09-28 02:06:00,59.4,58.3,30.12,SW,215,0.0,1.0,96,0.00,,,0.00,meteohub,2013-09-28 06:06:00,
2013-09-28 02:11:00,59.4,58.3,30.12,SW,215,0.0,1.0,96,0.00,,,0.00,meteohub,2013-09-28 06:11:00,
2013-09-28 02:16:00,59.2,58.1,30.12,SW,215,0.0,1.0,96,0.00,,,0.00,meteohub,2013-09-28 06:16:00,
2013-09-28 02:21:00,59.2,58.1,30.12,SW,216,0.0,1.0,96,0.00,,,0.00,meteohub,2013-09-28 06:21:00,
2013-09-28 02:26:00,59.2,58.1,30.12,SW,215,0.0,1.0,96,0.00,,,0.00,meteohub,2013-09-28 06:26:00,
2013-09-28 02:31:00,59.0,57.9,30.12,SW,216,0.0,1.0,96,0.00,,,0.00,meteohub,2013-09-28 06:31:00,
2013-09-28 02:36:00,58.8,57.7,30.12,SW,215,0.0,1.0,96,0.00,,,0.00,meteohub,2013-09-28 06:36:00,
2013-09-28 02:41:00,58.8,57.7,30.12,SW,215,0.0,0.0,96,0.00,,,0.00,meteohub,2013-09-28 06:41:00,
2013-09-28 02:46:00,58.8,57.7,30.12,SW,215,0.0,0.0,96,0.00,,,0.00,meteohub,2013-09-28 06:46:00,
2013-09-28 02:51:00,58.8,57.7,30.12,SW,215,0.0,1.0,96,0.00,,,0.00,meteohub,2013-09-28 06:51:00,
2013-09-28 02:56:00,58.6,57.6,30.12,SW,215,0.0,1.0,96,0.00,,,0.00,meteohub,2013-09-28 06:56:00,
2013-09-28 03:01:00,58.6,57.6,30.12,SW,215,0.0,0.0,96,0.00,,,0.00,meteohub,2013-09-28 07:01:00,
2013-09-28 03:06:00,58.6,57.6,30.12,SW,215,0.0,0.0,96,0.00,,,0.00,meteohub,2013-09-28 07:06:00,
2013-09-28 03:12:00,58.5,57.4,30.11,SW,215,0.0,0.0,96,0.00,,,0.00,meteohub,2013-09-28 07:12:00,
2013-09-28 03:17:00,58.5,57.4,30.12,SW,216,0.0,0.0,96,0.00,,,0.00,meteohub,2013-09-28 07:17:00,
2013-09-28 03:22:00,58.5,57.4,30.11,SW,215,0.0,0.0,96,0.00,,,0.00,meteohub,2013-09-28 07:22:00,
2013-09-28 03:27:00,58.3,57.2,30.11,SW,215,0.0,0.0,96,0.00,,,0.00,meteohub,2013-09-28 07:27:00,
2013-09-28 03:32:00,58.3,57.2,30.11,SW,215,0.0,0.0,96,0.00,,,0.00,meteohub,2013-09-28 07:32:00,
2013-09-28 03:37:00,58.3,57.2,30.11,SW,215,0.0,0.0,96,0.00,,,0.00,meteohub,2013-09-28 07:37:00,
2013-09-28 03:42:00,57.9,56.8,30.11,SW,215,0.0,0.0,96,0.00,,,0.00,meteohub,2013-09-28 07:42:00,
2013-09-28 03:47:00,57.9,57.0,30.11,SW,216,0.0,0.0,97,0.00,,,0.00,meteohub,2013-09-28 07:47:00,
2013-09-28 03:51:00,57.9,57.0,30.11,SW,216,0.0,0.0,97,0.00,,,0.00,meteohub,2013-09-28 07:51:00,
2013-09-28 03:56:00,57.7,56.8,30.11,SW,216,0.0,0.0,97,0.00,,,0.00,meteohub,2013-09-28 07:56:00,
2013-09-28 04:01:00,57.7,56.8,30.11,SW,215,0.0,0.0,97,0.00,,,0.00,meteohub,2013-09-28 08:01:00,
2013-09-28 04:06:00,57.7,56.8,30.11,SW,216,0.0,0.0,97,0.00,,,0.00,meteohub,2013-09-28 08:06:00,
2013-09-28 04:11:00,57.6,56.7,30.11,SW,216,0.0,0.0,97,0.00,,,0.00,meteohub,2013-09-28 08:11:00,
2013-09-28 04:16:00,57.6,56.7,30.11,SW,215,0.0,0.0,97,0.00,,,0.00,meteohub,2013-09-28 08:16:00,
2013-09-28 04:21:00,57.4,56.5,30.11,SW,216,0.0,0.0,97,0.00,,,0.00,meteohub,2013-09-28 08:21:00,
2013-09-28 04:26:00,57.4,56.5,30.11,SW,215,0.0,0.0,97,0.00,,,0.00,meteohub,2013-09-28 08:26:00,
2013-09-28 04:31:00,57.2,56.3,30.11,SW,215,0.0,0.0,97,0.00,,,0.00,meteohub,2013-09-28 08:31:00,
2013-09-28 04:36:00,57.2,56.3,30.12,SW,215,0.0,0.0,97,0.00,,,0.00,meteohub,2013-09-28 08:36:00,
2013-09-28 04:41:00,57.2,56.3,30.12,SW,215,0.0,0.0,97,0.00,,,0.00,meteohub,2013-09-28 08:41:00,
2013-09-28 04:46:00,57.0,56.1,30.12,SW,215,0.0,0.0,97,0.00,,,0.00,meteohub,2013-09-28 08:46:00,
2013-09-28 04:52:00,57.0,56.1,30.12,SW,215,0.0,0.0,97,0.00,,,0.00,meteohub,2013-09-28 08:52:00,
2013-09-28 04:57:00,57.0,56.1,30.12,SW,215,0.0,0.0,97,0.00,,,0.00,meteohub,2013-09-28 08:57:00,
2013-09-28 05:02:00,57.0,56.1,30.12,SW,215,0.0,0.0,97,0.00,,,0.00,meteohub,2013-09-28 09:02:00,
2013-09-28 05:07:00,56.8,55.9,30.12,SW,215,0.0,0.0,97,0.00,,,0.00,meteohub,2013-09-28 09:07:00,
2013-09-28 05:12:00,56.8,55.9,30.12,SW,215,0.0,0.0,97,0.00,,,0.00,meteohub,2013-09-28 09:12:00,
2013-09-28 05:17:00,56.8,55.9,30.12,SW,215,0.0,0.0,97,0.00,,,0.00,meteohub,2013-09-28 09:17:00,
2013-09-28 05:22:00,56.8,55.9,30.12,SW,216,0.0,0.0,97,0.00,,,0.00,meteohub,2013-09-28 09:22:00,
2013-09-28 05:27:00,56.7,55.8,30.12,SW,215,0.0,0.0,97,0.00,,,0.00,meteohub,2013-09-28 09:27:00,
2013-09-28 05:32:00,56.7,55.8,30.12,SW,215,0.0,0.0,97,0.00,,,0.00,meteohub,2013-09-28 09:32:00,
2013-09-28 05:37:00,56.5,55.6,30.12,SW,215,0.0,0.0,97,0.00,,,0.00,meteohub,2013-09-28 09:37:00,
2013-09-28 05:42:00,56.5,55.6,30.12,SW,215,0.0,0.0,97,0.00,,,0.00,meteohub,2013-09-28 09:42:00,
2013-09-28 05:47:00,56.3,55.4,30.12,SW,215,0.0,0.0,97,0.00,,,0.00,meteohub,2013-09-28 09:47:00,
2013-09-28 05:52:00,56.1,55.2,30.13,SW,215,0.0,0.0,97,0.00,,,0.00,meteohub,2013-09-28 09:52:00,
2013-09-28 05:57:00,56.1,55.2,30.13,SW,215,0.0,0.0,97,0.00,,,0.00,meteohub,2013-09-28 09:57:00,
2013-09-28 06:02:00,55.9,55.0,30.13,SW,215,0.0,0.0,97,0.00,,,0.00,meteohub,2013-09-28 10:02:00,
2013-09-28 06:07:00,55.9,55.0,30.13,SW,215,0.0,0.0,97,0.00,,,0.00,meteohub,2013-09-28 10:07:00,
2013-09-28 06:12:00,55.9,55.0,30.13,SW,215,0.0,0.0,97,0.00,,,0.00,meteohub,2013-09-28 10:12:00,
2013-09-28 06:17:00,55.9,55.4,30.13,SW,216,0.0,0.0,98,0.00,,,0.00,meteohub,2013-09-28 10:17:00,
2013-09-28 06:22:00,55.9,55.4,30.14,SW,216,0.0,0.0,98,0.00,,,0.00,meteohub,2013-09-28 10:22:00,
2013-09-28 06:27:00,55.9,55.4,30.14,SW,215,0.0,0.0,98,0.00,,,0.00,meteohub,2013-09-28 10:27:00,
2013-09-28 06:32:00,55.9,55.4,30.14,SW,215,0.0,0.0,98,0.00,,,0.00,meteohub,2013-09-28 10:32:00,
2013-09-28 06:37:00,55.9,55.4,30.14,SW,215,0.0,0.0,98,0.00,,,0.00,meteohub,2013-09-28 10:37:00,
2013-09-28 06:42:00,55.9,55.4,30.14,SW,215,0.0,0.0,98,0.00,,,0.00,meteohub,2013-09-28 10:42:00,
2013-09-28 06:47:00,55.8,55.2,30.14,SW,215,0.0,0.0,98,0.00,,,0.00,meteohub,2013-09-28 10:47:00,
2013-09-28 06:52:00,55.9,55.4,30.14,SW,214,0.0,0.0,98,0.00,,,0.00,meteohub,2013-09-28 10:52:00,
2013-09-28 06:57:00,55.8,55.2,30.14,SW,215,0.0,0.0,98,0.00,,,0.00,meteohub,2013-09-28 10:57:00,
2013-09-28 07:02:00,55.8,55.2,30.15,SW,215,0.0,0.0,98,0.00,,,0.00,meteohub,2013-09-28 11:02:00,
2013-09-28 07:07:00,55.8,55.2,30.15,SW,215,0.0,0.0,98,0.00,,,0.00,meteohub,2013-09-28 11:07:00,
2013-09-28 07:12:00,55.8,55.2,30.15,SW,215,0.0,0.0,98,0.00,,,0.00,meteohub,2013-09-28 11:12:00,
2013-09-28 07:17:00,55.8,55.2,30.15,SW,215,0.0,0.0,98,0.00,,,0.00,meteohub,2013-09-28 11:17:00,
2013-09-28 07:22:00,55.8,55.2,30.15,SW,216,0.0,0.0,98,0.00,,,0.00,meteohub,2013-09-28 11:22:00,
2013-09-28 07:27:00,55.8,55.2,30.16,SW,215,0.0,0.0,98,0.00,,,0.00,meteohub,2013-09-28 11:27:00,
2013-09-28 07:32:00,55.8,55.2,30.16,SW,216,0.0,0.0,98,0.00,,,0.00,meteohub,2013-09-28 11:32:00,
2013-09-28 07:37:00,55.8,55.2,30.16,SW,215,0.0,0.0,98,0.00,,,0.00,meteohub,2013-09-28 11:37:00,
2013-09-28 07:42:00,55.8,55.2,30.16,SW,215,0.0,0.0,98,0.00,,,0.00,meteohub,2013-09-28 11:42:00,
2013-09-28 07:47:00,55.8,55.2,30.16,SW,215,0.0,0.0,98,0.00,,,0.00,meteohub,2013-09-28 11:47:00,
2013-09-28 07:52:00,55.8,55.2,30.16,SW,215,0.0,0.0,98,0.00,,,0.00,meteohub,2013-09-28 11:52:00,
2013-09-28 07:57:00,55.8,55.2,30.16,SW,215,0.0,0.0,98,0.00,,,0.00,meteohub,2013-09-28 11:57:00,
2013-09-28 08:02:00,55.9,55.4,30.17,SW,215,0.0,1.0,98,0.00,,,0.00,meteohub,2013-09-28 12:02:00,
2013-09-28 08:07:00,55.9,55.4,30.17,SW,215,0.0,1.0,98,0.00,,,0.00,meteohub,2013-09-28 12:07:00,
2013-09-28 08:12:00,55.9,55.4,30.17,SW,215,0.0,1.0,98,0.00,,,0.00,meteohub,2013-09-28 12:12:00,
2013-09-28 08:17:00,56.1,55.6,30.17,SW,215,0.0,1.0,98,0.00,,,0.00,meteohub,2013-09-28 12:17:00,
2013-09-28 08:22:00,56.1,55.6,30.17,SW,215,0.0,1.0,98,0.00,,,0.00,meteohub,2013-09-28 12:22:00,
2013-09-28 08:27:00,56.3,55.8,30.17,SW,215,0.0,1.0,98,0.00,,,0.00,meteohub,2013-09-28 12:27:00,
2013-09-28 08:32:00,56.5,55.9,30.17,SW,215,0.0,0.0,98,0.00,,,0.00,meteohub,2013-09-28 12:32:00,
2013-09-28 08:37:00,56.7,56.1,30.17,South,179,0.0,1.0,98,0.00,,,0.00,meteohub,2013-09-28 12:37:00,
2013-09-28 08:42:00,56.7,56.1,30.18,South,180,0.0,1.0,98,0.00,,,0.00,meteohub,2013-09-28 12:42:00,
2013-09-28 08:47:00,56.8,56.3,30.18,South,180,0.0,1.0,98,0.00,,,0.00,meteohub,2013-09-28 12:47:00,
2013-09-28 08:52:00,57.2,56.7,30.18,South,186,0.0,0.0,98,0.00,,,0.00,meteohub,2013-09-28 12:52:00,
2013-09-28 08:57:00,57.4,56.8,30.18,South,186,0.0,0.0,98,0.00,,,0.00,meteohub,2013-09-28 12:57:00,
2013-09-28 09:02:00,57.7,56.8,30.18,West,266,0.0,1.0,97,0.00,,,0.00,meteohub,2013-09-28 13:02:00,
2013-09-28 09:07:00,57.9,57.0,30.18,West,281,0.0,1.0,97,0.00,,,0.00,meteohub,2013-09-28 13:07:00,
2013-09-28 09:12:00,58.3,57.2,30.18,West,281,0.0,1.0,96,0.00,,,0.00,meteohub,2013-09-28 13:12:00,
2013-09-28 09:17:00,58.8,57.0,30.18,WSW,241,0.0,0.0,94,0.00,,,0.00,meteohub,2013-09-28 13:17:00,
2013-09-28 09:22:00,59.2,57.4,30.18,WNW,299,0.0,0.0,94,0.00,,,0.00,meteohub,2013-09-28 13:22:00,
2013-09-28 09:27:00,59.7,57.7,30.18,SSW,205,0.0,1.0,93,0.00,,,0.00,meteohub,2013-09-28 13:27:00,
2013-09-28 09:32:00,60.1,57.7,30.19,WSW,237,0.0,1.0,92,0.00,,,0.00,meteohub,2013-09-28 13:32:00,
2013-09-28 09:37:00,60.4,57.7,30.19,SE,141,0.0,1.0,91,0.00,,,0.00,meteohub,2013-09-28 13:37:00,
2013-09-28 09:42:00,61.0,58.1,30.19,South,172,0.0,1.0,90,0.00,,,0.00,meteohub,2013-09-28 13:42:00,
2013-09-28 09:47:00,61.3,58.1,30.19,SE,145,0.0,2.0,89,0.00,,,0.00,meteohub,2013-09-28 13:47:00,
2013-09-28 09:52:00,61.9,58.3,30.19,SW,229,1.0,3.0,88,0.00,,,0.00,meteohub,2013-09-28 13:52:00,
2013-09-28 09:57:00,62.1,57.6,30.19,SW,224,1.0,3.0,85,0.00,,,0.00,meteohub,2013-09-28 13:57:00,
2013-09-28 10:02:00,62.4,57.6,30.19,SW,215,0.0,2.0,84,0.00,,,0.00,meteohub,2013-09-28 14:02:00,
2013-09-28 10:07:00,62.8,57.9,30.20,SSE,150,0.0,4.0,84,0.00,,,0.00,meteohub,2013-09-28 14:07:00,
2013-09-28 10:12:00,63.1,58.3,30.20,NW,320,1.0,4.0,84,0.00,,,0.00,meteohub,2013-09-28 14:12:00,
2013-09-28 10:17:00,63.3,58.5,30.19,West,277,1.0,4.0,84,0.00,,,0.00,meteohub,2013-09-28 14:17:00,
2013-09-28 10:22:00,63.7,58.8,30.19,NW,323,2.0,2.0,84,0.00,,,0.00,meteohub,2013-09-28 14:22:00,
2013-09-28 10:27:00,63.7,58.8,30.19,SW,220,0.0,2.0,84,0.00,,,0.00,meteohub,2013-09-28 14:27:00,
2013-09-28 10:32:00,63.9,57.9,30.20,North,4,0.0,2.0,81,0.00,,,0.00,meteohub,2013-09-28 14:32:00,
2013-09-28 10:37:00,64.2,58.6,30.20,North,0,0.0,2.0,82,0.00,,,0.00,meteohub,2013-09-28 14:37:00,
2013-09-28 10:42:00,64.6,58.3,30.19,WNW,283,1.0,2.0,80,0.00,,,0.00,meteohub,2013-09-28 14:42:00,
2013-09-28 10:47:00,64.9,57.6,30.19,NNW,343,0.0,2.0,77,0.00,,,0.00,meteohub,2013-09-28 14:47:00,
2013-09-28 10:52:00,65.5,58.5,30.19,SSE,165,0.0,3.0,78,0.00,,,0.00,meteohub,2013-09-28 14:52:00,
2013-09-28 10:57:00,66.0,58.3,30.19,South,170,2.0,3.0,76,0.00,,,0.00,meteohub,2013-09-28 14:57:00,
2013-09-28 11:02:00,66.2,57.2,30.19,SSW,210,1.0,3.0,73,0.00,,,0.00,meteohub,2013-09-28 15:02:00,
2013-09-28 11:07:00,66.4,57.4,30.19,West,269,1.0,3.0,73,0.00,,,0.00,meteohub,2013-09-28 15:07:00,
2013-09-28 11:12:00,66.6,57.6,30.19,West,274,0.0,4.0,73,0.00,,,0.00,meteohub,2013-09-28 15:12:00,
2013-09-28 11:17:00,66.7,57.7,30.19,WNW,285,0.0,4.0,73,0.00,,,0.00,meteohub,2013-09-28 15:17:00,
2013-09-28 11:22:00,66.9,57.6,30.19,SE,134,0.0,3.0,72,0.00,,,0.00,meteohub,2013-09-28 15:22:00,
2013-09-28 11:27:00,67.1,57.7,30.19,SSW,204,2.0,3.0,72,0.00,,,0.00,meteohub,2013-09-28 15:27:00,
2013-09-28 11:32:00,67.3,57.6,30.19,ESE,113,0.0,3.0,71,0.00,,,0.00,meteohub,2013-09-28 15:32:00,
2013-09-28 11:37:00,67.5,57.7,30.19,SSW,196,1.0,3.0,71,0.00,,,0.00,meteohub,2013-09-28 15:37:00,
2013-09-28 11:42:00,67.8,58.5,30.19,SSW,204,1.0,3.0,72,0.00,,,0.00,meteohub,2013-09-28 15:42:00,
2013-09-28 11:47:00,68.2,58.8,30.19,WNW,284,0.0,3.0,72,0.00,,,0.00,meteohub,2013-09-28 15:47:00,
2013-09-28 11:52:00,68.2,58.5,30.19,SSE,162,0.0,3.0,71,0.00,,,0.00,meteohub,2013-09-28 15:52:00,
2013-09-28 11:57:00,68.4,58.6,30.19,NW,319,0.0,3.0,71,0.00,,,0.00,meteohub,2013-09-28 15:57:00,
2013-09-28 12:02:00,68.5,58.8,30.19,South,188,0.0,3.0,71,0.00,,,0.00,meteohub,2013-09-28 16:02:00,
2013-09-28 12:07:00,69.3,59.0,30.19,SSE,166,0.0,3.0,70,0.00,,,0.00,meteohub,2013-09-28 16:07:00,
2013-09-28 12:12:00,69.4,58.8,30.18,South,181,1.0,3.0,69,0.00,,,0.00,meteohub,2013-09-28 16:12:00,
2013-09-28 12:17:00,70.0,59.4,30.18,NW,326,0.0,3.0,69,0.00,,,0.00,meteohub,2013-09-28 16:17:00,
2013-09-28 12:22:00,70.3,59.7,30.18,WNW,302,0.0,3.0,69,0.00,,,0.00,meteohub,2013-09-28 16:22:00,
2013-09-28 12:27:00,70.5,59.0,30.18,SSE,155,0.0,2.0,67,0.00,,,0.00,meteohub,2013-09-28 16:27:00,
2013-09-28 12:32:00,70.9,58.5,30.18,NNW,337,1.0,2.0,65,0.00,,,0.00,meteohub,2013-09-28 16:32:00,
2013-09-28 12:37:00,71.1,59.5,30.18,SW,224,0.0,3.0,67,0.00,,,0.00,meteohub,2013-09-28 16:37:00,
2013-09-28 12:42:00,71.2,60.6,30.18,NW,322,0.0,3.0,69,0.00,,,0.00,meteohub,2013-09-28 16:42:00,
2013-09-28 12:48:00,71.4,58.6,30.18,SSE,158,1.0,2.0,64,0.00,,,0.00,meteohub,2013-09-28 16:48:00,
2013-09-28 12:53:00,72.0,58.3,30.18,SSW,207,3.0,3.0,62,0.00,,,0.00,meteohub,2013-09-28 16:53:00,
2013-09-28 12:58:00,72.3,59.0,30.18,South,181,2.0,3.0,63,0.00,,,0.00,meteohub,2013-09-28 16:58:00,
2013-09-28 13:03:00,72.7,59.4,30.18,North,354,1.0,3.0,63,0.00,,,0.00,meteohub,2013-09-28 17:03:00,
2013-09-28 13:08:00,72.5,59.2,30.17,SSE,165,2.0,3.0,63,0.00,,,0.00,meteohub,2013-09-28 17:08:00,
2013-09-28 13:13:00,72.7,58.8,30.17,SW,214,2.0,3.0,62,0.00,,,0.00,meteohub,2013-09-28 17:13:00,
2013-09-28 13:18:00,72.9,59.5,30.17,SSE,165,1.0,4.0,63,0.00,,,0.00,meteohub,2013-09-28 17:18:00,
2013-09-28 13:23:00,73.2,59.9,30.17,SW,234,1.0,4.0,63,0.00,,,0.00,meteohub,2013-09-28 17:23:00,
2013-09-28 13:28:00,73.0,58.3,30.17,South,172,0.0,3.0,60,0.00,,,0.00,meteohub,2013-09-28 17:28:00,
2013-09-28 13:33:00,72.7,58.5,30.16,WSW,257,0.0,3.0,61,0.00,,,0.00,meteohub,2013-09-28 17:33:00,
2013-09-28 13:38:00,72.0,58.3,30.16,NNE,12,1.0,3.0,62,0.00,,,0.00,meteohub,2013-09-28 17:38:00,
2013-09-28 13:43:00,72.1,57.9,30.16,SSE,167,1.0,4.0,61,0.00,,,0.00,meteohub,2013-09-28 17:43:00,
2013-09-28 13:48:00,72.1,58.5,30.16,SSE,166,1.0,4.0,62,0.00,,,0.00,meteohub,2013-09-28 17:48:00,
2013-09-28 13:53:00,72.5,58.3,30.16,NW,308,0.0,3.0,61,0.00,,,0.00,meteohub,2013-09-28 17:53:00,
2013-09-28 13:58:00,72.5,60.1,30.15,NW,321,2.0,3.0,65,0.00,,,0.00,meteohub,2013-09-28 17:58:00,
2013-09-28 14:03:00,72.1,58.5,30.15,SSW,201,0.0,3.0,62,0.00,,,0.00,meteohub,2013-09-28 18:03:00,
2013-09-28 14:09:00,72.0,58.6,30.14,South,187,0.0,2.0,63,0.00,,,0.00,meteohub,2013-09-28 18:09:00,
2013-09-28 14:14:00,71.6,58.3,30.14,NNW,335,0.0,2.0,63,0.00,,,0.00,meteohub,2013-09-28 18:14:00,
2013-09-28 14:19:00,71.4,58.1,30.14,South,181,1.0,2.0,63,0.00,,,0.00,meteohub,2013-09-28 18:19:00,
2013-09-28 14:24:00,71.6,57.9,30.14,SSE,165,1.0,2.0,62,0.00,,,0.00,meteohub,2013-09-28 18:24:00,
2013-09-28 14:29:00,71.8,59.4,30.14,North,357,0.0,3.0,65,0.00,,,0.00,meteohub,2013-09-28 18:29:00,
2013-09-28 14:34:00,71.8,58.5,30.14,North,356,1.0,3.0,63,0.00,,,0.00,meteohub,2013-09-28 18:34:00,
2013-09-28 14:39:00,72.0,58.3,30.14,SSW,198,1.0,3.0,62,0.00,,,0.00,meteohub,2013-09-28 18:39:00,
2013-09-28 14:44:00,72.0,57.7,30.14,WSW,238,0.0,3.0,61,0.00,,,0.00,meteohub,2013-09-28 18:44:00,
2013-09-28 14:49:00,72.0,57.7,30.14,South,173,0.0,4.0,61,0.00,,,0.00,meteohub,2013-09-28 18:49:00,
2013-09-28 14:54:00,71.8,57.6,30.14,South,172,1.0,4.0,61,0.00,,,0.00,meteohub,2013-09-28 18:54:00,
2013-09-28 14:59:00,71.4,59.0,30.14,SSW,194,0.0,4.0,65,0.00,,,0.00,meteohub,2013-09-28 18:59:00,
2013-09-28 15:04:00,71.4,58.1,30.14,South,172,0.0,3.0,63,0.00,,,0.00,meteohub,2013-09-28 19:04:00,
2013-09-28 15:10:00,71.2,59.4,30.14,SSW,197,1.0,3.0,66,0.00,,,0.00,meteohub,2013-09-28 19:10:00,
2013-09-28 15:15:00,71.4,59.5,30.13,North,4,1.0,2.0,66,0.00,,,0.00,meteohub,2013-09-28 19:15:00,
2013-09-28 15:20:00,71.4,59.0,30.13,South,173,1.0,1.0,65,0.00,,,0.00,meteohub,2013-09-28 19:20:00,
2013-09-28 15:25:00,71.4,59.0,30.13,SW,225,1.0,2.0,65,0.00,,,0.00,meteohub,2013-09-28 19:25:00,
2013-09-28 15:30:00,71.6,58.8,30.13,SW,228,0.0,2.0,64,0.00,,,0.00,meteohub,2013-09-28 19:30:00,
2013-09-28 15:35:00,72.0,59.2,30.13,SSW,195,0.0,2.0,64,0.00,,,0.00,meteohub,2013-09-28 19:35:00,
2013-09-28 15:40:00,72.1,59.4,30.12,SW,234,1.0,3.0,64,0.00,,,0.00,meteohub,2013-09-28 19:40:00,
2013-09-28 15:45:00,72.3,58.6,30.12,SSE,163,1.0,3.0,62,0.00,,,0.00,meteohub,2013-09-28 19:45:00,
2013-09-28 15:50:00,72.3,58.1,30.12,SSW,201,1.0,3.0,61,0.00,,,0.00,meteohub,2013-09-28 19:50:00,
2013-09-28 15:55:00,72.3,58.6,30.12,WNW,290,1.0,3.0,62,0.00,,,0.00,meteohub,2013-09-28 19:55:00,
2013-09-28 16:01:00,72.3,58.6,30.12,NW,324,0.0,3.0,62,0.00,,,0.00,meteohub,2013-09-28 20:01:00,
2013-09-28 16:06:00,72.3,58.1,30.12,SSW,207,1.0,2.0,61,0.00,,,0.00,meteohub,2013-09-28 20:06:00,
2013-09-28 16:11:00,72.3,58.6,30.12,SW,233,0.0,2.0,62,0.00,,,0.00,meteohub,2013-09-28 20:11:00,
2013-09-28 16:16:00,72.3,58.1,30.12,SSW,210,0.0,2.0,61,0.00,,,0.00,meteohub,2013-09-28 20:16:00,
2013-09-28 16:21:00,72.3,59.5,30.12,NW,315,0.0,2.0,64,0.00,,,0.00,meteohub,2013-09-28 20:21:00,
2013-09-28 16:26:00,72.3,58.6,30.12,SE,145,0.0,2.0,62,0.00,,,0.00,meteohub,2013-09-28 20:26:00,
2013-09-28 16:31:00,72.3,58.1,30.11,South,181,1.0,1.0,61,0.00,,,0.00,meteohub,2013-09-28 20:31:00,
2013-09-28 16:36:00,72.3,57.7,30.11,WSW,241,3.0,3.0,60,0.00,,,0.00,meteohub,2013-09-28 20:36:00,
2013-09-28 16:41:00,72.3,58.6,30.11,NNW,337,1.0,3.0,62,0.00,,,0.00,meteohub,2013-09-28 20:41:00,
2013-09-28 16:46:00,72.0,58.3,30.11,South,181,1.0,3.0,62,0.00,,,0.00,meteohub,2013-09-28 20:46:00,
2013-09-28 16:51:00,72.0,57.7,30.11,WNW,289,1.0,3.0,61,0.00,,,0.00,meteohub,2013-09-28 20:51:00,
2013-09-28 16:56:00,71.6,58.3,30.11,WSW,256,0.0,2.0,63,0.00,,,0.00,meteohub,2013-09-28 20:56:00,
2013-09-28 17:01:00,71.4,57.7,30.11,WNW,287,0.0,1.0,62,0.00,,,0.00,meteohub,2013-09-28 21:01:00,
2013-09-28 17:06:00,71.4,57.7,30.11,East,91,1.0,2.0,62,0.00,,,0.00,meteohub,2013-09-28 21:06:00,
2013-09-28 17:11:00,71.2,58.5,30.11,West,264,0.0,2.0,64,0.00,,,0.00,meteohub,2013-09-28 21:11:00,
2013-09-28 17:16:00,71.2,57.9,30.10,South,172,0.0,2.0,63,0.00,,,0.00,meteohub,2013-09-28 21:16:00,
2013-09-28 17:21:00,71.1,58.3,30.10,South,173,1.0,2.0,64,0.00,,,0.00,meteohub,2013-09-28 21:21:00,
2013-09-28 17:26:00,71.1,58.6,30.10,NW,307,0.0,2.0,65,0.00,,,0.00,meteohub,2013-09-28 21:26:00,
2013-09-28 17:31:00,70.7,58.8,30.10,SSW,210,1.0,2.0,66,0.00,,,0.00,meteohub,2013-09-28 21:31:00,
2013-09-28 17:36:00,70.5,58.6,30.10,SW,224,0.0,2.0,66,0.00,,,0.00,meteohub,2013-09-28 21:36:00,
2013-09-28 17:41:00,70.3,58.5,30.09,WSW,239,0.0,2.0,66,0.00,,,0.00,meteohub,2013-09-28 21:41:00,
2013-09-28 17:46:00,70.2,58.6,30.09,SSW,205,0.0,2.0,67,0.00,,,0.00,meteohub,2013-09-28 21:46:00,
2013-09-28 17:51:00,70.0,58.5,30.09,SSE,167,0.0,1.0,67,0.00,,,0.00,meteohub,2013-09-28 21:51:00,
2013-09-28 17:56:00,70.0,59.0,30.09,SSE,167,0.0,1.0,68,0.00,,,0.00,meteohub,2013-09-28 21:56:00,
2013-09-28 18:01:00,69.6,58.6,30.09,South,169,0.0,1.0,68,0.00,,,0.00,meteohub,2013-09-28 22:01:00,
2013-09-28 18:07:00,69.6,58.6,30.09,SW,229,1.0,2.0,68,0.00,,,0.00,meteohub,2013-09-28 22:07:00,
2013-09-28 18:12:00,69.4,58.5,30.09,SSW,212,0.0,2.0,68,0.00,,,0.00,meteohub,2013-09-28 22:12:00,
2013-09-28 18:17:00,69.4,58.8,30.09,SW,219,0.0,2.0,69,0.00,,,0.00,meteohub,2013-09-28 22:17:00,
2013-09-28 18:22:00,69.3,58.6,30.09,SSW,198,0.0,1.0,69,0.00,,,0.00,meteohub,2013-09-28 22:22:00,
2013-09-28 18:27:00,69.1,59.7,30.09,South,181,0.0,2.0,72,0.00,,,0.00,meteohub,2013-09-28 22:27:00,
2013-09-28 18:32:00,68.7,59.4,30.09,SW,214,0.0,2.0,72,0.00,,,0.00,meteohub,2013-09-28 22:32:00,
2013-09-28 18:37:00,68.4,59.4,30.09,SW,214,0.0,1.0,73,0.00,,,0.00,meteohub,2013-09-28 22:37:00,
2013-09-28 18:42:00,68.0,59.7,30.09,SW,214,0.0,1.0,75,0.00,,,0.00,meteohub,2013-09-28 22:42:00,
2013-09-28 18:47:00,67.6,59.7,30.09,SW,214,0.0,1.0,76,0.00,,,0.00,meteohub,2013-09-28 22:47:00,
2013-09-28 18:52:00,67.3,59.9,30.09,SW,214,0.0,0.0,77,0.00,,,0.00,meteohub,2013-09-28 22:52:00,
2013-09-28 18:57:00,66.9,60.3,30.09,SW,214,0.0,0.0,79,0.00,,,0.00,meteohub,2013-09-28 22:57:00,
2013-09-28 19:02:00,66.6,59.9,30.09,SW,214,0.0,0.0,79,0.00,,,0.00,meteohub,2013-09-28 23:02:00,
2013-09-28 19:07:00,66.4,60.4,30.09,SW,214,0.0,0.0,81,0.00,,,0.00,meteohub,2013-09-28 23:07:00,
2013-09-28 19:12:00,66.0,60.1,30.09,SW,214,0.0,0.0,81,0.00,,,0.00,meteohub,2013-09-28 23:12:00,
2013-09-28 19:17:00,65.7,59.7,30.09,SW,214,0.0,0.0,81,0.00,,,0.00,meteohub,2013-09-28 23:17:00,
2013-09-28 19:22:00,65.3,60.1,30.09,SW,214,0.0,0.0,83,0.00,,,0.00,meteohub,2013-09-28 23:22:00,
2013-09-28 19:27:00,64.9,59.7,30.09,SW,214,0.0,0.0,83,0.00,,,0.00,meteohub,2013-09-28 23:27:00,
2013-09-28 19:32:00,64.8,59.9,30.09,SW,214,0.0,0.0,84,0.00,,,0.00,meteohub,2013-09-28 23:32:00,
2013-09-28 19:37:00,64.4,59.7,30.09,SW,214,0.0,0.0,85,0.00,,,0.00,meteohub,2013-09-28 23:37:00,
2013-09-28 19:42:00,64.0,59.4,30.09,SW,214,0.0,0.0,85,0.00,,,0.00,meteohub,2013-09-28 23:42:00,
2013-09-28 19:47:00,63.7,59.4,30.09,SW,214,0.0,0.0,86,0.00,,,0.00,meteohub,2013-09-28 23:47:00,
2013-09-28 19:52:00,63.5,59.2,30.09,SW,214,0.0,0.0,86,0.00,,,0.00,meteohub,2013-09-28 23:52:00,
2013-09-28 19:57:00,63.3,59.4,30.09,SW,214,0.0,0.0,87,0.00,,,0.00,meteohub,2013-09-28 23:57:00,
2013-09-28 20:02:00,63.1,59.2,30.09,SW,214,0.0,0.0,87,0.00,,,0.00,meteohub,2013-09-29 00:02:00,
2013-09-28 20:07:00,63.0,59.4,30.09,SW,214,0.0,0.0,88,0.00,,,0.00,meteohub,2013-09-29 00:07:00,
2013-09-28 20:12:00,62.6,59.0,30.09,SW,214,0.0,0.0,88,0.00,,,0.00,meteohub,2013-09-29 00:12:00,
2013-09-28 20:17:00,62.4,58.8,30.09,SW,214,0.0,0.0,88,0.00,,,0.00,meteohub,2013-09-29 00:17:00,
2013-09-28 20:22:00,62.4,59.2,30.09,SW,214,0.0,0.0,89,0.00,,,0.00,meteohub,2013-09-29 00:22:00,
2013-09-28 20:27:00,62.2,59.0,30.10,SW,214,0.0,0.0,89,0.00,,,0.00,meteohub,2013-09-29 00:27:00,
2013-09-28 20:32:00,62.1,59.2,30.10,SW,214,0.0,0.0,90,0.00,,,0.00,meteohub,2013-09-29 00:32:00,
2013-09-28 20:37:00,62.1,59.2,30.10,SW,214,0.0,0.0,90,0.00,,,0.00,meteohub,2013-09-29 00:37:00,
2013-09-28 20:42:00,61.9,59.0,30.10,SW,214,0.0,0.0,90,0.00,,,0.00,meteohub,2013-09-29 00:42:00,
2013-09-28 20:47:00,61.7,59.0,30.11,SW,214,0.0,0.0,91,0.00,,,0.00,meteohub,2013-09-29 00:47:00,
2013-09-28 20:52:00,61.5,58.8,30.11,SW,214,0.0,0.0,91,0.00,,,0.00,meteohub,2013-09-29 00:52:00,
2013-09-28 20:57:00,61.5,59.2,30.11,SW,214,0.0,0.0,92,0.00,,,0.00,meteohub,2013-09-29 00:57:00,
2013-09-28 21:02:00,61.3,59.0,30.11,SW,214,0.0,0.0,92,0.00,,,0.00,meteohub,2013-09-29 01:02:00,
2013-09-28 21:07:00,61.3,59.0,30.11,SW,214,0.0,0.0,92,0.00,,,0.00,meteohub,2013-09-29 01:07:00,
2013-09-28 21:12:00,61.2,59.2,30.11,SW,214,0.0,0.0,93,0.00,,,0.00,meteohub,2013-09-29 01:12:00,
2013-09-28 21:17:00,61.2,59.2,30.11,SW,214,0.0,0.0,93,0.00,,,0.00,meteohub,2013-09-29 01:17:00,
2013-09-28 21:22:00,61.2,59.2,30.11,SW,214,0.0,0.0,93,0.00,,,0.00,meteohub,2013-09-29 01:22:00,
2013-09-28 21:27:00,61.2,59.2,30.11,SW,214,0.0,0.0,93,0.00,,,0.00,meteohub,2013-09-29 01:27:00,
2013-09-28 21:32:00,61.3,59.4,30.11,SW,214,0.0,0.0,93,0.00,,,0.00,meteohub,2013-09-29 01:32:00,
2013-09-28 21:37:00,61.3,59.4,30.12,SW,214,0.0,0.0,93,0.00,,,0.00,meteohub,2013-09-29 01:37:00,
2013-09-28 21:42:00,61.5,59.5,30.12,SW,214,0.0,0.0,93,0.00,,,0.00,meteohub,2013-09-29 01:42:00,
2013-09-28 21:47:00,61.7,59.7,30.11,SW,214,0.0,0.0,93,0.00,,,0.00,meteohub,2013-09-29 01:47:00,
2013-09-28 21:52:00,61.9,59.9,30.12,SW,214,0.0,0.0,93,0.00,,,0.00,meteohub,2013-09-29 01:52:00,
2013-09-28 21:57:00,62.1,59.7,30.12,SW,214,0.0,0.0,92,0.00,,,0.00,meteohub,2013-09-29 01:57:00,
2013-09-28 22:02:00,62.1,59.7,30.12,SW,214,0.0,0.0,92,0.00,,,0.00,meteohub,2013-09-29 02:02:00,
2013-09-28 22:07:00,62.2,59.9,30.12,SW,214,0.0,0.0,92,0.00,,,0.00,meteohub,2013-09-29 02:07:00,
2013-09-28 22:12:00,62.2,59.9,30.12,SW,214,0.0,0.0,92,0.00,,,0.00,meteohub,2013-09-29 02:12:00,
2013-09-28 22:17:00,62.2,59.9,30.12,SW,214,0.0,0.0,92,0.00,,,0.00,meteohub,2013-09-29 02:17:00,
2013-09-28 22:22:00,62.4,59.7,30.12,SW,214,0.0,0.0,91,0.00,,,0.00,meteohub,2013-09-29 02:22:00,
2013-09-28 22:27:00,62.4,59.7,30.12,SW,214,0.0,0.0,91,0.00,,,0.00,meteohub,2013-09-29 02:27:00,
2013-09-28 22:32:00,62.4,59.7,30.12,WSW,250,0.0,0.0,91,0.00,,,0.00,meteohub,2013-09-29 02:32:00,
2013-09-28 22:37:00,62.6,59.9,30.12,WSW,250,0.0,1.0,91,0.00,,,0.00,meteohub,2013-09-29 02:37:00,
2013-09-28 22:42:00,62.6,59.9,30.12,WSW,250,0.0,1.0,91,0.00,,,0.00,meteohub,2013-09-29 02:42:00,
2013-09-28 22:47:00,62.8,59.7,30.12,WSW,250,0.0,1.0,90,0.00,,,0.00,meteohub,2013-09-29 02:47:00,
2013-09-28 22:52:00,62.8,59.7,30.12,WSW,250,0.0,1.0,90,0.00,,,0.00,meteohub,2013-09-29 02:52:00,
2013-09-28 22:57:00,62.8,59.2,30.12,WSW,250,0.0,1.0,88,0.00,,,0.00,meteohub,2013-09-29 02:57:00,
2013-09-28 23:02:00,63.0,59.0,30.12,WSW,250,0.0,1.0,87,0.00,,,0.00,meteohub,2013-09-29 03:02:00,
2013-09-28 23:07:00,63.1,58.8,30.12,WSW,250,0.0,1.0,86,0.00,,,0.00,meteohub,2013-09-29 03:07:00,
2013-09-28 23:12:00,63.1,58.6,30.12,WSW,245,0.0,1.0,85,0.00,,,0.00,meteohub,2013-09-29 03:12:00,
2013-09-28 23:17:00,63.1,58.3,30.12,WSW,245,1.0,1.0,84,0.00,,,0.00,meteohub,2013-09-29 03:17:00,
2013-09-28 23:22:00,63.3,58.1,30.12,WSW,245,0.0,1.0,83,0.00,,,0.00,meteohub,2013-09-29 03:22:00,
2013-09-28 23:27:00,63.3,57.7,30.12,South,169,0.0,1.0,82,0.00,,,0.00,meteohub,2013-09-29 03:27:00,
2013-09-28 23:32:00,63.5,57.9,30.12,WSW,237,0.0,1.0,82,0.00,,,0.00,meteohub,2013-09-29 03:32:00,
2013-09-28 23:37:00,63.5,57.6,30.12,SW,226,0.0,1.0,81,0.00,,,0.00,meteohub,2013-09-29 03:37:00,
2013-09-28 23:42:00,63.3,57.4,30.12,South,173,0.0,1.0,81,0.00,,,0.00,meteohub,2013-09-29 03:42:00,
2013-09-28 23:47:00,63.3,57.7,30.13,South,173,0.0,1.0,82,0.00,,,0.00,meteohub,2013-09-29 03:47:00,
2013-09-28 23:52:00,63.1,57.9,30.13,South,173,0.0,1.0,83,0.00,,,0.00,meteohub,2013-09-29 03:52:00,
2013-09-28 23:57:00,63.1,57.6,30.12,South,174,0.0,0.0,82,0.00,,,0.00,meteohub,2013-09-29 03:57:00,